Test XHTML 1.0 Strict Page for WU-History Testing
Station Historical Data
Daily Summary for March 22, 2017 Units:  Both    English   Metric
« Previous Day
Next Day »
Daily Weekly Monthly Yearly Custom
  High: Low: Average:
Temperature: 44.4 °F /  6.9 °C 33.6 °F /  0.9 °C 40.9 °F /  4.9 °C
Dew Point: 44.4 °F /  6.9 °C 33.6 °F /  0.9 °C 40.8 °F /  4.9 °C
Humidity: 100 % 98 % 100 %
Wind Speed: 76.7 mph /  123.4 km/h - 6.1 mph /  9.8 km/h
Wind Gust: 76.7 mph /  123.4 km/h - -
Wind:- - SSE
Pressure: 29.90 in /  1012.4 hPa 29.57 in /  1001.2 hPa -
Precipitation: 0.26 in /  6.6 mm    
Historical Graphs
 
 
Weather-Above Climate History
Untitled
Tabular Data for March 22, 2017
Time Temperature Dew Point Pressure Wind Wind Speed Wind Gust Humidity Rainfall Rate (Hourly) solar Conditions
00:05 39.7 °F /  4.3 °C 39.7 °F /  4.3 °C 29.67 in /  1004.6 hPa ESE 3.3 mph /  5.3 km/h 3.3 mph /  5.3 km/h 100 % 0.02 in /  0.51 mm 0.0 W/m2 RA
00:15 39.9 °F /  4.4 °C 39.9 °F /  4.4 °C 29.66 in /  1004.3 hPa SSE 8.1 mph /  13 km/h 8.1 mph /  13 km/h 100 % 0.03 in /  0.76 mm 15.0 W/m2 RA
00:20 39.7 °F /  4.3 °C 39.7 °F /  4.3 °C 29.66 in /  1004.3 hPa SE 3.6 mph /  5.8 km/h 3.6 mph /  5.8 km/h 100 % 0.03 in /  0.76 mm 0.0 W/m2
00:25 39.9 °F /  4.4 °C 39.9 °F /  4.4 °C 29.66 in /  1004.3 hPa ESE 9.2 mph /  14.8 km/h 9.2 mph /  14.8 km/h 100 % 0.02 in /  0.51 mm 10.5 W/m2
00:30 39.9 °F /  4.4 °C 39.9 °F /  4.4 °C 29.66 in /  1004.3 hPa SSE 5.8 mph /  9.3 km/h   100 % 0.02 in /  0.51 mm 10.5 W/m2
00:35 39.9 °F /  4.4 °C 39.9 °F /  4.4 °C 29.66 in /  1004.3 hPa SE 3.6 mph /  5.8 km/h 3.6 mph /  5.8 km/h 100 % 0.02 in /  0.51 mm 0.0 W/m2
00:40 39.9 °F /  4.4 °C 39.9 °F /  4.4 °C 29.66 in /  1004.3 hPa SSE 4.6 mph /  7.4 km/h 4.6 mph /  7.4 km/h 100 % 0.03 in /  0.76 mm 16.5 W/m2 RA
00:45 39.9 °F /  4.4 °C 39.9 °F /  4.4 °C 29.66 in /  1004.3 hPa South 7.0 mph /  11.3 km/h 7.0 mph /  11.3 km/h 100 % 0.02 in /  0.51 mm 12.0 W/m2 RA
00:50 40.1 °F /  4.5 °C 40.1 °F /  4.5 °C 29.65 in /  1003.9 hPa South 5.8 mph /  9.3 km/h 5.8 mph /  9.3 km/h 100 % 0.02 in /  0.51 mm 0.0 W/m2
00:55 40.1 °F /  4.5 °C 40.1 °F /  4.5 °C 29.65 in /  1003.9 hPa SE 2.9 mph /  4.7 km/h 2.9 mph /  4.7 km/h 100 % 0.02 in /  0.51 mm 16.5 W/m2
01:00 40.1 °F /  4.5 °C 40.1 °F /  4.5 °C 29.65 in /  1003.9 hPa ESE 8.1 mph /  13 km/h 8.1 mph /  13 km/h 100 % 0.02 in /  0.51 mm 10.5 W/m2 RA
01:05 40.1 °F /  4.5 °C 40.1 °F /  4.5 °C 29.65 in /  1003.9 hPa SSE 6.6 mph /  10.6 km/h 6.6 mph /  10.6 km/h 100 % 0.02 in /  0.51 mm 0.0 W/m2 RA
01:10 40.1 °F /  4.5 °C 40.1 °F /  4.5 °C 29.64 in /  1003.6 hPa ESE 4.6 mph /  7.4 km/h 4.6 mph /  7.4 km/h 100 % 0.02 in /  0.51 mm 10.5 W/m2
01:15 40.1 °F /  4.5 °C 40.1 °F /  4.5 °C 29.64 in /  1003.6 hPa SSE 7.5 mph /  12.1 km/h 7.5 mph /  12.1 km/h 100 % 0.02 in /  0.51 mm 10.5 W/m2
01:20 40.1 °F /  4.5 °C 40.1 °F /  4.5 °C 29.64 in /  1003.6 hPa SSW 8.1 mph /  13 km/h 8.1 mph /  13 km/h 100 % 0.02 in /  0.51 mm 0.0 W/m2
01:25 40.1 °F /  4.5 °C 40.1 °F /  4.5 °C 29.64 in /  1003.6 hPa Calm     100 % 0.02 in /  0.51 mm 12.0 W/m2
01:30 40.1 °F /  4.5 °C 40.1 °F /  4.5 °C 29.63 in /  1003.3 hPa SE 9.2 mph /  14.8 km/h 9.2 mph /  14.8 km/h 100 % 0.02 in /  0.51 mm 10.5 W/m2
01:35 40.3 °F /  4.6 °C 40.3 °F /  4.6 °C 29.63 in /  1003.3 hPa SE 5.1 mph /  8.2 km/h 5.1 mph /  8.2 km/h 100 % 0.02 in /  0.51 mm 0.0 W/m2
01:40 40.1 °F /  4.5 °C 40.1 °F /  4.5 °C 29.63 in /  1003.3 hPa South 8.1 mph /  13 km/h 8.1 mph /  13 km/h 100 % 0.01 in /  0.25 mm 12.0 W/m2
01:45 40.3 °F /  4.6 °C 40.3 °F /  4.6 °C 29.62 in /  1002.9 hPa SE 11.5 mph /  18.5 km/h 11.5 mph /  18.5 km/h 100 % 0.01 in /  0.25 mm 18.0 W/m2
01:51 40.3 °F /  4.6 °C 40.3 °F /  4.6 °C 29.62 in /  1002.9 hPa SSE 15.5 mph /  24.9 km/h 15.5 mph /  24.9 km/h 100 % 0.01 in /  0.25 mm 0.0 W/m2
01:56 40.3 °F /  4.6 °C 40.3 °F /  4.6 °C 29.61 in /  1002.6 hPa SE 11.0 mph /  17.7 km/h 11.0 mph /  17.7 km/h 100 % 0.01 in /  0.25 mm 9.0 W/m2
02:01 40.5 °F /  4.7 °C 40.5 °F /  4.7 °C 29.61 in /  1002.6 hPa SSE 11.5 mph /  18.5 km/h 11.5 mph /  18.5 km/h 100 % 0.00 in /  0 mm 10.5 W/m2
02:06 40.3 °F /  4.6 °C 40.3 °F /  4.6 °C 29.61 in /  1002.6 hPa SSW 9.2 mph /  14.8 km/h 9.2 mph /  14.8 km/h 100 % 0.00 in /  0 mm 0.0 W/m2
02:11 40.3 °F /  4.6 °C 40.3 °F /  4.6 °C 29.61 in /  1002.6 hPa SE 11.2 mph /  18 km/h 11.2 mph /  18 km/h 100 % 0.00 in /  0 mm 15.0 W/m2
02:16 40.3 °F /  4.6 °C 40.3 °F /  4.6 °C 29.61 in /  1002.6 hPa South 9.2 mph /  14.8 km/h 9.2 mph /  14.8 km/h 100 % 0.00 in /  0 mm 0.0 W/m2
02:21 40.1 °F /  4.5 °C 40.1 °F /  4.5 °C 29.61 in /  1002.6 hPa ESE 6.9 mph /  11.1 km/h 6.9 mph /  11.1 km/h 100 % 0.00 in /  0 mm 0.0 W/m2
02:26 40.3 °F /  4.6 °C 40.3 °F /  4.6 °C 29.61 in /  1002.6 hPa SE 11.5 mph /  18.5 km/h 11.5 mph /  18.5 km/h 100 % 0.00 in /  0 mm 10.5 W/m2
02:31 40.3 °F /  4.6 °C 40.3 °F /  4.6 °C 29.61 in /  1002.6 hPa South 76.7 mph /  123.4 km/h 76.7 mph /  123.4 km/h 100 % 0.00 in /  0 mm 0.0 W/m2
02:36 40.3 °F /  4.6 °C 40.3 °F /  4.6 °C 29.61 in /  1002.6 hPa SE 9.5 mph /  15.3 km/h 9.5 mph /  15.3 km/h 100 % 0.00 in /  0 mm 0.0 W/m2
02:41 40.3 °F /  4.6 °C 40.3 °F /  4.6 °C 29.61 in /  1002.6 hPa SE 10.4 mph /  16.7 km/h 10.4 mph /  16.7 km/h 100 % 0.00 in /  0 mm 0.0 W/m2
02:46 40.5 °F /  4.7 °C 40.5 °F /  4.7 °C 29.60 in /  1002.3 hPa SE 10.6 mph /  17.1 km/h 10.6 mph /  17.1 km/h 100 % 0.00 in /  0 mm 0.0 W/m2
02:51 40.5 °F /  4.7 °C 40.5 °F /  4.7 °C 29.60 in /  1002.3 hPa South 12.8 mph /  20.6 km/h 12.8 mph /  20.6 km/h 100 % 0.00 in /  0 mm 0.0 W/m2
02:56 40.5 °F /  4.7 °C 40.5 °F /  4.7 °C 29.60 in /  1002.3 hPa SSE 6.9 mph /  11.1 km/h 6.9 mph /  11.1 km/h 100 % 0.00 in /  0 mm 10.5 W/m2
03:01 40.8 °F /  4.9 °C 40.8 °F /  4.9 °C 29.60 in /  1002.3 hPa SSE 7.5 mph /  12.1 km/h 7.5 mph /  12.1 km/h 100 % 0.00 in /  0 mm 0.0 W/m2
03:06 40.6 °F /  4.8 °C 40.6 °F /  4.8 °C 29.60 in /  1002.3 hPa SE 10.4 mph /  16.7 km/h 10.4 mph /  16.7 km/h 100 % 0.00 in /  0 mm 0.0 W/m2
03:11 40.8 °F /  4.9 °C 40.8 °F /  4.9 °C 29.60 in /  1002.3 hPa SE 4.6 mph /  7.4 km/h 4.6 mph /  7.4 km/h 100 % 0.00 in /  0 mm 10.5 W/m2
03:21 40.6 °F /  4.8 °C 40.6 °F /  4.8 °C 29.60 in /  1002.3 hPa SE 5.0 mph /  8 km/h 5.0 mph /  8 km/h 100 % 0.00 in /  0 mm 0.0 W/m2
03:26 40.6 °F /  4.8 °C 40.6 °F /  4.8 °C 29.60 in /  1002.3 hPa SSE 9.9 mph /  15.9 km/h 9.9 mph /  15.9 km/h 100 % 0.00 in /  0 mm 15.0 W/m2
03:32 40.6 °F /  4.8 °C 40.6 °F /  4.8 °C 29.59 in /  1001.9 hPa East 10.4 mph /  16.7 km/h 10.4 mph /  16.7 km/h 100 % 0.00 in /  0 mm 0.0 W/m2
03:37 40.6 °F /  4.8 °C 40.6 °F /  4.8 °C 29.59 in /  1001.9 hPa SSE 2.8 mph /  4.5 km/h 2.8 mph /  4.5 km/h 100 % 0.00 in /  0 mm 0.0 W/m2
03:42 40.5 °F /  4.7 °C 40.5 °F /  4.7 °C 29.59 in /  1001.9 hPa SSE 10.4 mph /  16.7 km/h 10.4 mph /  16.7 km/h 100 % 0.00 in /  0 mm 10.5 W/m2
03:47 40.5 °F /  4.7 °C 40.5 °F /  4.7 °C 29.59 in /  1001.9 hPa SE 12.8 mph /  20.6 km/h 12.8 mph /  20.6 km/h 100 % 0.00 in /  0 mm 0.0 W/m2
03:52 40.5 °F /  4.7 °C 40.5 °F /  4.7 °C 29.58 in /  1001.6 hPa SSE 11.2 mph /  18 km/h 11.2 mph /  18 km/h 100 % 0.00 in /  0 mm 0.0 W/m2
03:57 40.8 °F /  4.9 °C 40.8 °F /  4.9 °C 29.59 in /  1001.9 hPa South 14.1 mph /  22.7 km/h 14.1 mph /  22.7 km/h 100 % 0.00 in /  0 mm 10.5 W/m2
04:02 41.0 °F /  5 °C 41.0 °F /  5 °C 29.58 in /  1001.6 hPa SE 9.2 mph /  14.8 km/h 9.2 mph /  14.8 km/h 100 % 0.00 in /  0 mm 0.0 W/m2 CLR
04:07 41.0 °F /  5 °C 41.0 °F /  5 °C 29.58 in /  1001.6 hPa SSE 6.9 mph /  11.1 km/h 6.9 mph /  11.1 km/h 100 % 0.00 in /  0 mm 0.0 W/m2 CLR
04:12 41.0 °F /  5 °C 41.0 °F /  5 °C 29.58 in /  1001.6 hPa SE 13.8 mph /  22.2 km/h 13.8 mph /  22.2 km/h 100 % 0.00 in /  0 mm 9.0 W/m2
04:17 41.0 °F /  5 °C 41.0 °F /  5 °C 29.58 in /  1001.6 hPa SSE 16.1 mph /  25.9 km/h 16.1 mph /  25.9 km/h 100 % 0.00 in /  0 mm 0.0 W/m2
04:22 41.0 °F /  5 °C 41.0 °F /  5 °C 29.58 in /  1001.6 hPa SE 13.0 mph /  20.9 km/h 13.0 mph /  20.9 km/h 100 % 0.00 in /  0 mm 0.0 W/m2
04:27 41.0 °F /  5 °C 41.0 °F /  5 °C 29.58 in /  1001.6 hPa SE 13.8 mph /  22.2 km/h 13.8 mph /  22.2 km/h 100 % 0.00 in /  0 mm 18.0 W/m2
04:32 41.0 °F /  5 °C 40.7 °F /  4.8 °C 29.58 in /  1001.6 hPa SSE 5.4 mph /  8.7 km/h 5.4 mph /  8.7 km/h 99 % 0.00 in /  0 mm 0.0 W/m2
04:38 41.2 °F /  5.1 °C 40.9 °F /  4.9 °C 29.58 in /  1001.6 hPa ESE 15.6 mph /  25.1 km/h 15.6 mph /  25.1 km/h 99 % 0.00 in /  0 mm 0.0 W/m2
04:43 41.4 °F /  5.2 °C 40.8 °F /  4.9 °C 29.58 in /  1001.6 hPa SE 10.6 mph /  17.1 km/h 10.6 mph /  17.1 km/h 98 % 0.00 in /  0 mm 12.0 W/m2 OVC
04:48 41.4 °F /  5.2 °C 41.1 °F /  5.1 °C 29.58 in /  1001.6 hPa SSE 8.6 mph /  13.8 km/h 8.6 mph /  13.8 km/h 99 % 0.00 in /  0 mm 0.0 W/m2
04:53 41.0 °F /  5 °C 41.0 °F /  5 °C 29.58 in /  1001.6 hPa South 9.8 mph /  15.8 km/h 9.8 mph /  15.8 km/h 100 % 0.00 in /  0 mm 0.0 W/m2
04:58 41.2 °F /  5.1 °C 41.2 °F /  5.1 °C 29.57 in /  1001.2 hPa SSE 8.3 mph /  13.4 km/h 8.3 mph /  13.4 km/h 100 % 0.00 in /  0 mm 10.5 W/m2
05:03 41.2 °F /  5.1 °C 40.9 °F /  4.9 °C 29.57 in /  1001.2 hPa SE 10.5 mph /  16.9 km/h 10.5 mph /  16.9 km/h 99 % 0.01 in /  0.25 mm 0.0 W/m2 RA
05:08 41.0 °F /  5 °C 41.0 °F /  5 °C 29.57 in /  1001.2 hPa ESE 12.0 mph /  19.3 km/h 12.0 mph /  19.3 km/h 100 % 0.01 in /  0.25 mm 0.0 W/m2 RA
05:13 41.0 °F /  5 °C 41.0 °F /  5 °C 29.57 in /  1001.2 hPa SE 11.9 mph /  19.2 km/h 11.9 mph /  19.2 km/h 100 % 0.01 in /  0.25 mm 9.0 W/m2
05:18 41.0 °F /  5 °C 41.0 °F /  5 °C 29.58 in /  1001.6 hPa SE 15.0 mph /  24.1 km/h 15.0 mph /  24.1 km/h 100 % 0.01 in /  0.25 mm 0.0 W/m2
05:23 41.0 °F /  5 °C 40.7 °F /  4.8 °C 29.58 in /  1001.6 hPa ESE 14.4 mph /  23.2 km/h 14.4 mph /  23.2 km/h 99 % 0.01 in /  0.25 mm 0.0 W/m2
05:28 41.0 °F /  5 °C 40.7 °F /  4.8 °C 29.57 in /  1001.2 hPa SSE 8.4 mph /  13.5 km/h 8.4 mph /  13.5 km/h 99 % 0.01 in /  0.25 mm 10.5 W/m2
05:33 41.2 °F /  5.1 °C 40.9 °F /  4.9 °C 29.58 in /  1001.6 hPa SSE 11.2 mph /  18 km/h 11.2 mph /  18 km/h 99 % 0.01 in /  0.25 mm 0.0 W/m2
05:38 41.2 °F /  5.1 °C 40.9 °F /  4.9 °C 29.58 in /  1001.6 hPa SE 11.9 mph /  19.2 km/h 11.9 mph /  19.2 km/h 99 % 0.01 in /  0.25 mm 0.0 W/m2
05:43 41.0 °F /  5 °C 41.0 °F /  5 °C 29.58 in /  1001.6 hPa ESE 10.8 mph /  17.4 km/h 10.8 mph /  17.4 km/h 100 % 0.01 in /  0.25 mm 10.5 W/m2 OVC
05:48 41.0 °F /  5 °C 41.0 °F /  5 °C 29.58 in /  1001.6 hPa South 5.1 mph /  8.2 km/h 5.1 mph /  8.2 km/h 100 % 0.01 in /  0.25 mm 0.0 W/m2 OVC
05:53 40.8 °F /  4.9 °C 40.8 °F /  4.9 °C 29.57 in /  1001.2 hPa East 10.8 mph /  17.4 km/h 10.8 mph /  17.4 km/h 100 % 0.01 in /  0.25 mm 0.0 W/m2
05:58 41.0 °F /  5 °C 40.7 °F /  4.8 °C 29.58 in /  1001.6 hPa SE 8.1 mph /  13 km/h 8.1 mph /  13 km/h 99 % 0.01 in /  0.25 mm 12.0 W/m2
06:03 41.0 °F /  5 °C 40.7 °F /  4.8 °C 29.58 in /  1001.6 hPa WSW 16.3 mph /  26.2 km/h 16.3 mph /  26.2 km/h 99 % 0.01 in /  0.25 mm 10.5 W/m2 RA
06:09 41.0 °F /  5 °C 40.7 °F /  4.8 °C 29.58 in /  1001.6 hPa SSE 10.5 mph /  16.9 km/h 10.5 mph /  16.9 km/h 99 % 0.01 in /  0.25 mm 10.5 W/m2 RA
06:14 40.8 °F /  4.9 °C 40.8 °F /  4.9 °C 29.58 in /  1001.6 hPa ESE 13.8 mph /  22.2 km/h 13.8 mph /  22.2 km/h 100 % 0.01 in /  0.25 mm 24.0 W/m2
06:19 40.8 °F /  4.9 °C 40.8 °F /  4.9 °C 29.58 in /  1001.6 hPa East 13.1 mph /  21.1 km/h 13.1 mph /  21.1 km/h 100 % 0.01 in /  0.25 mm 0.0 W/m2
06:24 40.8 °F /  4.9 °C 40.8 °F /  4.9 °C 29.58 in /  1001.6 hPa SSE 16.4 mph /  26.4 km/h 16.4 mph /  26.4 km/h 100 % 0.01 in /  0.25 mm 0.0 W/m2
06:29 40.8 °F /  4.9 °C 40.8 °F /  4.9 °C 29.58 in /  1001.6 hPa SE 11.6 mph /  18.7 km/h 11.6 mph /  18.7 km/h 100 % 0.01 in /  0.25 mm 21.0 W/m2
06:34 40.8 °F /  4.9 °C 40.8 °F /  4.9 °C 29.58 in /  1001.6 hPa NE 12.0 mph /  19.3 km/h 12.0 mph /  19.3 km/h 100 % 0.02 in /  0.51 mm 0.3 W/m2 RA
06:39 40.8 °F /  4.9 °C 40.8 °F /  4.9 °C 29.58 in /  1001.6 hPa South 10.9 mph /  17.5 km/h 10.9 mph /  17.5 km/h 100 % 0.02 in /  0.51 mm 0.3 W/m2 RA
06:44 40.8 °F /  4.9 °C 40.8 °F /  4.9 °C 29.58 in /  1001.6 hPa SSE 12.7 mph /  20.4 km/h 12.7 mph /  20.4 km/h 100 % 0.02 in /  0.51 mm 12.0 W/m2
06:49 41.0 °F /  5 °C 41.0 °F /  5 °C 29.58 in /  1001.6 hPa SSE 10.8 mph /  17.4 km/h 10.8 mph /  17.4 km/h 100 % 0.02 in /  0.51 mm 1.4 W/m2 CLR
06:54 41.0 °F /  5 °C 41.0 °F /  5 °C 29.58 in /  1001.6 hPa ESE 10.5 mph /  16.9 km/h 10.5 mph /  16.9 km/h 100 % 0.02 in /  0.51 mm 1.9 W/m2
06:59 41.0 °F /  5 °C 41.0 °F /  5 °C 29.58 in /  1001.6 hPa ESE 9.2 mph /  14.8 km/h 9.2 mph /  14.8 km/h 100 % 0.02 in /  0.51 mm 12.0 W/m2 CLR
07:04 41.0 °F /  5 °C 41.0 °F /  5 °C 29.58 in /  1001.6 hPa SSE 4.7 mph /  7.6 km/h 4.7 mph /  7.6 km/h 100 % 0.01 in /  0.25 mm 1.8 W/m2 CLR
07:09 41.0 °F /  5 °C 41.0 °F /  5 °C 29.58 in /  1001.6 hPa NE 13.5 mph /  21.7 km/h 13.5 mph /  21.7 km/h 100 % 0.01 in /  0.25 mm 2.3 W/m2 CLR
07:14 40.8 °F /  4.9 °C 40.8 °F /  4.9 °C 29.58 in /  1001.6 hPa SE 13.8 mph /  22.2 km/h 13.8 mph /  22.2 km/h 100 % 0.01 in /  0.25 mm 12.0 W/m2
07:19 40.8 °F /  4.9 °C 40.8 °F /  4.9 °C 29.58 in /  1001.6 hPa SSE 15.5 mph /  24.9 km/h 15.5 mph /  24.9 km/h 100 % 0.01 in /  0.25 mm 4.0 W/m2
07:24 40.8 °F /  4.9 °C 40.8 °F /  4.9 °C 29.58 in /  1001.6 hPa SE 10.4 mph /  16.7 km/h 10.4 mph /  16.7 km/h 100 % 0.02 in /  0.51 mm 4.9 W/m2 RA
07:29 40.8 °F /  4.9 °C 40.8 °F /  4.9 °C 29.58 in /  1001.6 hPa SE 14.5 mph /  23.3 km/h 14.5 mph /  23.3 km/h 100 % 0.02 in /  0.51 mm 25.5 W/m2 RA
07:34 40.8 °F /  4.9 °C 40.8 °F /  4.9 °C 29.58 in /  1001.6 hPa East 18.5 mph /  29.8 km/h 18.5 mph /  29.8 km/h 100 % 0.01 in /  0.25 mm 4.2 W/m2
07:39 40.8 °F /  4.9 °C 40.8 °F /  4.9 °C 29.58 in /  1001.6 hPa SSE 9.4 mph /  15.1 km/h 9.4 mph /  15.1 km/h 100 % 0.01 in /  0.25 mm 11.2 W/m2
07:44 41.0 °F /  5 °C 41.0 °F /  5 °C 29.58 in /  1001.6 hPa SE 15.0 mph /  24.1 km/h 15.0 mph /  24.1 km/h 100 % 0.01 in /  0.25 mm 46.5 W/m2
07:50 41.0 °F /  5 °C 41.0 °F /  5 °C 29.58 in /  1001.6 hPa ESE 10.4 mph /  16.7 km/h 10.4 mph /  16.7 km/h 100 % 0.01 in /  0.25 mm 11.4 W/m2 CLR
07:55 40.8 °F /  4.9 °C 40.8 °F /  4.9 °C 29.58 in /  1001.6 hPa East 5.8 mph /  9.3 km/h 5.8 mph /  9.3 km/h 100 % 0.02 in /  0.51 mm 12.6 W/m2 RA
08:00 41.0 °F /  5 °C 41.0 °F /  5 °C 29.58 in /  1001.6 hPa SE 15.0 mph /  24.1 km/h 15.0 mph /  24.1 km/h 100 % 0.02 in /  0.51 mm 25.5 W/m2 RA
08:05 41.0 °F /  5 °C 41.0 °F /  5 °C 29.59 in /  1001.9 hPa SE 15.0 mph /  24.1 km/h 15.0 mph /  24.1 km/h 100 % 0.02 in /  0.51 mm 12.5 W/m2 OVC
08:10 41.0 °F /  5 °C 41.0 °F /  5 °C 29.58 in /  1001.6 hPa SSE 15.7 mph /  25.3 km/h 15.7 mph /  25.3 km/h 100 % 0.02 in /  0.51 mm 43.5 W/m2 OVC
08:15 41.2 °F /  5.1 °C 41.2 °F /  5.1 °C 29.58 in /  1001.6 hPa SSE 11.5 mph /  18.5 km/h 11.5 mph /  18.5 km/h 100 % 0.02 in /  0.51 mm 34.5 W/m2 RA
08:20 41.0 °F /  5 °C 41.0 °F /  5 °C 29.58 in /  1001.6 hPa SSE 12.7 mph /  20.4 km/h 12.7 mph /  20.4 km/h 100 % 0.02 in /  0.51 mm 15.5 W/m2 RA
08:25 41.0 °F /  5 °C 41.0 °F /  5 °C 29.59 in /  1001.9 hPa SE 8.1 mph /  13 km/h 8.1 mph /  13 km/h 100 % 0.02 in /  0.51 mm 16.5 W/m2 OVC
08:30 41.0 °F /  5 °C 41.0 °F /  5 °C 29.58 in /  1001.6 hPa SE 14.2 mph /  22.9 km/h 14.2 mph /  22.9 km/h 100 % 0.02 in /  0.51 mm 37.5 W/m2 RA
08:35 41.0 °F /  5 °C 41.0 °F /  5 °C 29.59 in /  1001.9 hPa SE 11.6 mph /  18.7 km/h 11.6 mph /  18.7 km/h 100 % 0.02 in /  0.51 mm 6.6 W/m2 OVC
08:40 40.8 °F /  4.9 °C 40.8 °F /  4.9 °C 29.59 in /  1001.9 hPa SSE 16.1 mph /  25.9 km/h 16.1 mph /  25.9 km/h 100 % 0.03 in /  0.76 mm 25.5 W/m2 RA
08:45 40.8 °F /  4.9 °C 40.8 °F /  4.9 °C 29.60 in /  1002.3 hPa SE 13.8 mph /  22.2 km/h 13.8 mph /  22.2 km/h 100 % 0.04 in /  1.02 mm 46.5 W/m2 RA
08:50 40.8 °F /  4.9 °C 40.8 °F /  4.9 °C 29.60 in /  1002.3 hPa South 17.3 mph /  27.8 km/h 17.3 mph /  27.8 km/h 100 % 0.03 in /  0.76 mm 19.7 W/m2 RA
09:00 41.0 °F /  5 °C 41.0 °F /  5 °C 29.60 in /  1002.3 hPa South 10.4 mph /  16.7 km/h 10.4 mph /  16.7 km/h 100 % 0.05 in /  1.27 mm 36.0 W/m2 RA
09:05 41.2 °F /  5.1 °C 41.2 °F /  5.1 °C 29.60 in /  1002.3 hPa SSE 3.5 mph /  5.6 km/h 3.5 mph /  5.6 km/h 100 % 0.05 in /  1.27 mm 36.4 W/m2 RA
09:10 41.4 °F /  5.2 °C 41.4 °F /  5.2 °C 29.60 in /  1002.3 hPa SSE 16.7 mph /  26.9 km/h 16.7 mph /  26.9 km/h 100 % 0.05 in /  1.27 mm 67.5 W/m2 OVC
09:15 41.4 °F /  5.2 °C 41.4 °F /  5.2 °C 29.60 in /  1002.3 hPa SSE 13.8 mph /  22.2 km/h 13.8 mph /  22.2 km/h 100 % 0.04 in /  1.02 mm 73.5 W/m2 OVC
09:20 41.5 °F /  5.3 °C 41.5 °F /  5.3 °C 29.60 in /  1002.3 hPa SE 12.7 mph /  20.4 km/h 12.7 mph /  20.4 km/h 100 % 0.04 in /  1.02 mm 57.2 W/m2 OVC
09:25 41.5 °F /  5.3 °C 41.5 °F /  5.3 °C 29.60 in /  1002.3 hPa SE 10.4 mph /  16.7 km/h 10.4 mph /  16.7 km/h 100 % 0.04 in /  1.02 mm 79.5 W/m2 RA
09:30 41.5 °F /  5.3 °C 41.5 °F /  5.3 °C 29.60 in /  1002.3 hPa SE 4.6 mph /  7.4 km/h 4.6 mph /  7.4 km/h 100 % 0.04 in /  1.02 mm 57.0 W/m2 RA
09:36 41.7 °F /  5.4 °C 41.7 °F /  5.4 °C 29.60 in /  1002.3 hPa SE 8.0 mph /  12.9 km/h 8.0 mph /  12.9 km/h 100 % 0.04 in /  1.02 mm 45.7 W/m2 OVC
09:41 41.7 °F /  5.4 °C 41.7 °F /  5.4 °C 29.60 in /  1002.3 hPa SE 9.8 mph /  15.8 km/h 9.8 mph /  15.8 km/h 100 % 0.04 in /  1.02 mm 51.0 W/m2 RA
09:46 41.5 °F /  5.3 °C 41.5 °F /  5.3 °C 29.60 in /  1002.3 hPa SE 2.3 mph /  3.7 km/h 2.3 mph /  3.7 km/h 100 % 0.03 in /  0.76 mm 45.0 W/m2 RA
09:51 41.5 °F /  5.3 °C 41.5 °F /  5.3 °C 29.60 in /  1002.3 hPa South 6.9 mph /  11.1 km/h 6.9 mph /  11.1 km/h 100 % 0.03 in /  0.76 mm 36.8 W/m2 OVC
09:56 41.5 °F /  5.3 °C 41.5 °F /  5.3 °C 29.60 in /  1002.3 hPa SSE 12.7 mph /  20.4 km/h 12.7 mph /  20.4 km/h 100 % 0.02 in /  0.51 mm 57.0 W/m2 OVC
10:01 41.5 °F /  5.3 °C 41.5 °F /  5.3 °C 29.61 in /  1002.6 hPa ESE 12.7 mph /  20.4 km/h 12.7 mph /  20.4 km/h 100 % 0.02 in /  0.51 mm 55.7 W/m2 OVC
10:06 41.7 °F /  5.4 °C 41.7 °F /  5.4 °C 29.61 in /  1002.6 hPa SE 7.5 mph /  12.1 km/h 7.5 mph /  12.1 km/h 100 % 0.02 in /  0.51 mm 66.7 W/m2 OVC
10:11 41.9 °F /  5.5 °C 41.9 °F /  5.5 °C 29.61 in /  1002.6 hPa ESE 8.8 mph /  14.2 km/h 8.8 mph /  14.2 km/h 100 % 0.02 in /  0.51 mm 72.0 W/m2 OVC
10:16 42.1 °F /  5.6 °C 42.1 °F /  5.6 °C 29.61 in /  1002.6 hPa South 12.8 mph /  20.6 km/h 12.8 mph /  20.6 km/h 100 % 0.02 in /  0.51 mm 96.6 W/m2 OVC
10:21 42.3 °F /  5.7 °C 42.3 °F /  5.7 °C 29.61 in /  1002.6 hPa ESE 13.9 mph /  22.4 km/h 13.9 mph /  22.4 km/h 100 % 0.01 in /  0.25 mm 90.0 W/m2 OVC
10:26 42.3 °F /  5.7 °C 42.3 °F /  5.7 °C 29.60 in /  1002.3 hPa SSE 6.9 mph /  11.1 km/h 6.9 mph /  11.1 km/h 100 % 0.01 in /  0.25 mm 75.0 W/m2 OVC
10:31 42.1 °F /  5.6 °C 42.1 °F /  5.6 °C 29.60 in /  1002.3 hPa SW 8.1 mph /  13 km/h 8.1 mph /  13 km/h 100 % 0.02 in /  0.51 mm 76.2 W/m2 RA
10:36 42.1 °F /  5.6 °C 42.1 °F /  5.6 °C 29.60 in /  1002.3 hPa SE 10.4 mph /  16.7 km/h 10.4 mph /  16.7 km/h 100 % 0.01 in /  0.25 mm 55.7 W/m2 OVC
10:41 41.9 °F /  5.5 °C 41.9 °F /  5.5 °C 29.61 in /  1002.6 hPa ESE 7.0 mph /  11.3 km/h 7.0 mph /  11.3 km/h 100 % 0.01 in /  0.25 mm 54.0 W/m2 OVC
10:46 42.3 °F /  5.7 °C 42.3 °F /  5.7 °C 29.61 in /  1002.6 hPa SE 16.1 mph /  25.9 km/h 16.1 mph /  25.9 km/h 100 % 0.02 in /  0.51 mm 97.5 W/m2 RA
10:51 42.4 °F /  5.8 °C 42.4 °F /  5.8 °C 29.61 in /  1002.6 hPa South 8.4 mph /  13.5 km/h 8.4 mph /  13.5 km/h 100 % 0.02 in /  0.51 mm 64.7 W/m2 RA
10:57 42.3 °F /  5.7 °C 42.3 °F /  5.7 °C 29.61 in /  1002.6 hPa ESE 9.4 mph /  15.1 km/h 9.4 mph /  15.1 km/h 100 % 0.02 in /  0.51 mm 70.5 W/m2 OVC
11:02 42.4 °F /  5.8 °C 42.4 °F /  5.8 °C 29.61 in /  1002.6 hPa ESE 6.9 mph /  11.1 km/h 6.9 mph /  11.1 km/h 100 % 0.02 in /  0.51 mm 68.4 W/m2 RA
11:07 42.3 °F /  5.7 °C 42.3 °F /  5.7 °C 29.62 in /  1002.9 hPa SSE 3.6 mph /  5.8 km/h 3.6 mph /  5.8 km/h 100 % 0.02 in /  0.51 mm 45.0 W/m2 RA
11:17 42.6 °F /  5.9 °C 42.6 °F /  5.9 °C 29.62 in /  1002.9 hPa SW 8.7 mph /  14 km/h 8.7 mph /  14 km/h 100 % 0.03 in /  0.76 mm 62.2 W/m2 RA
11:22 42.6 °F /  5.9 °C 42.6 °F /  5.9 °C 29.62 in /  1002.9 hPa SSE 7.2 mph /  11.6 km/h 7.2 mph /  11.6 km/h 100 % 0.03 in /  0.76 mm 78.0 W/m2 RA
11:27 42.6 °F /  5.9 °C 42.6 °F /  5.9 °C 29.62 in /  1002.9 hPa SSE 12.7 mph /  20.4 km/h 12.7 mph /  20.4 km/h 100 % 0.02 in /  0.51 mm 66.0 W/m2 OVC
11:32 42.8 °F /  6 °C 42.8 °F /  6 °C 29.62 in /  1002.9 hPa ESE 11.6 mph /  18.7 km/h 11.6 mph /  18.7 km/h 100 % 0.02 in /  0.51 mm 101.5 W/m2 OVC
11:37 42.8 °F /  6 °C 42.8 °F /  6 °C 29.62 in /  1002.9 hPa ESE 11.9 mph /  19.2 km/h 11.9 mph /  19.2 km/h 100 % 0.02 in /  0.51 mm 57.0 W/m2 OVC
11:42 42.8 °F /  6 °C 42.8 °F /  6 °C 29.62 in /  1002.9 hPa SSE 8.1 mph /  13 km/h 8.1 mph /  13 km/h 100 % 0.02 in /  0.51 mm 54.0 W/m2 OVC
11:47 42.8 °F /  6 °C 42.8 °F /  6 °C 29.62 in /  1002.9 hPa NW 9.1 mph /  14.6 km/h 9.1 mph /  14.6 km/h 100 % 0.02 in /  0.51 mm 64.4 W/m2 OVC
11:52 43.0 °F /  6.1 °C 43.0 °F /  6.1 °C 29.62 in /  1002.9 hPa SE 8.1 mph /  13 km/h 8.1 mph /  13 km/h 100 % 0.02 in /  0.51 mm 61.5 W/m2 OVC
11:57 43.0 °F /  6.1 °C 43.0 °F /  6.1 °C 29.62 in /  1002.9 hPa SE 11.5 mph /  18.5 km/h 11.5 mph /  18.5 km/h 100 % 0.02 in /  0.51 mm 78.0 W/m2 OVC
12:02 43.0 °F /  6.1 °C 43.0 °F /  6.1 °C 29.62 in /  1002.9 hPa ESE 3.5 mph /  5.6 km/h 3.5 mph /  5.6 km/h 100 % 0.01 in /  0.25 mm 79.2 W/m2 OVC
12:07 43.0 °F /  6.1 °C 43.0 °F /  6.1 °C 29.63 in /  1003.3 hPa SW 10.8 mph /  17.4 km/h 10.8 mph /  17.4 km/h 100 % 0.02 in /  0.51 mm 37.5 W/m2 RA
12:12 43.0 °F /  6.1 °C 43.0 °F /  6.1 °C 29.63 in /  1003.3 hPa SSE 2.1 mph /  3.4 km/h 2.1 mph /  3.4 km/h 100 % 0.02 in /  0.51 mm 39.0 W/m2 RA
12:17 42.8 °F /  6 °C 42.8 °F /  6 °C 29.63 in /  1003.3 hPa Calm     100 % 0.02 in /  0.51 mm 50.7 W/m2 RA
12:22 43.0 °F /  6.1 °C 43.0 °F /  6.1 °C 29.64 in /  1003.6 hPa SSE 1.1 mph /  1.8 km/h 1.1 mph /  1.8 km/h 100 % 0.02 in /  0.51 mm 60.0 W/m2 RA
12:27 43.2 °F /  6.2 °C 43.2 °F /  6.2 °C 29.64 in /  1003.6 hPa SE 15.0 mph /  24.1 km/h 15.0 mph /  24.1 km/h 100 % 0.02 in /  0.51 mm 81.0 W/m2 RA
12:32 43.2 °F /  6.2 °C 43.2 °F /  6.2 °C 29.64 in /  1003.6 hPa SE 5.0 mph /  8 km/h 5.0 mph /  8 km/h 100 % 0.03 in /  0.76 mm 122.0 W/m2 RA
12:38 43.2 °F /  6.2 °C 43.2 °F /  6.2 °C 29.64 in /  1003.6 hPa SSE 9.8 mph /  15.8 km/h 9.8 mph /  15.8 km/h 100 % 0.03 in /  0.76 mm 69.0 W/m2 RA
12:43 43.2 °F /  6.2 °C 43.2 °F /  6.2 °C 29.64 in /  1003.6 hPa South 10.4 mph /  16.7 km/h 10.4 mph /  16.7 km/h 100 % 0.03 in /  0.76 mm 24.0 W/m2 OVC
12:48 42.8 °F /  6 °C 42.8 °F /  6 °C 29.64 in /  1003.6 hPa SE 9.2 mph /  14.8 km/h 9.2 mph /  14.8 km/h 100 % 0.03 in /  0.76 mm 96.7 W/m2 OVC
12:53 42.8 °F /  6 °C 42.8 °F /  6 °C 29.64 in /  1003.6 hPa SE 9.2 mph /  14.8 km/h 9.2 mph /  14.8 km/h 100 % 0.04 in /  1.02 mm 73.5 W/m2 RA
12:58 42.8 °F /  6 °C 42.8 °F /  6 °C 29.64 in /  1003.6 hPa South 2.3 mph /  3.7 km/h   100 % 0.05 in /  1.27 mm 60.0 W/m2 RA
13:03 42.8 °F /  6 °C 42.8 °F /  6 °C 29.64 in /  1003.6 hPa Calm     100 % 0.05 in /  1.27 mm 77.1 W/m2 RA
13:08 43.0 °F /  6.1 °C 43.0 °F /  6.1 °C 29.64 in /  1003.6 hPa Calm     100 % 0.04 in /  1.02 mm 52.5 W/m2 OVC
13:13 42.8 °F /  6 °C 42.8 °F /  6 °C 29.64 in /  1003.6 hPa Calm     100 % 0.03 in /  0.76 mm 72.0 W/m2 OVC
13:18 43.2 °F /  6.2 °C 43.2 °F /  6.2 °C 29.64 in /  1003.6 hPa Calm     100 % 0.04 in /  1.02 mm 82.0 W/m2 RA
13:19 43.2 °F /  6.2 °C 43.2 °F /  6.2 °C 29.64 in /  1003.6 hPa SE 1.4 mph /  2.3 km/h 1.4 mph /  2.3 km/h 100 % 0.04 in /  1.02 mm 54.0 W/m2 RA
13:24 43.2 °F /  6.2 °C 43.2 °F /  6.2 °C 29.64 in /  1003.6 hPa SSE 3.5 mph /  5.6 km/h 3.5 mph /  5.6 km/h 100 % 0.04 in /  1.02 mm 33.0 W/m2 RA
13:29 42.4 °F /  5.8 °C 42.4 °F /  5.8 °C 29.64 in /  1003.6 hPa SSE 3.9 mph /  6.3 km/h 3.9 mph /  6.3 km/h 100 % 0.03 in /  0.76 mm 76.3 W/m2 OVC
13:34 42.4 °F /  5.8 °C 42.4 °F /  5.8 °C 29.64 in /  1003.6 hPa SSE 10.4 mph /  16.7 km/h 10.4 mph /  16.7 km/h 100 % 0.02 in /  0.51 mm 84.0 W/m2 OVC
13:39 42.4 °F /  5.8 °C 42.4 °F /  5.8 °C 29.64 in /  1003.6 hPa South 4.6 mph /  7.4 km/h 4.6 mph /  7.4 km/h 100 % 0.02 in /  0.51 mm 52.5 W/m2 OVC
13:44 42.3 °F /  5.7 °C 42.3 °F /  5.7 °C 29.64 in /  1003.6 hPa South 4.6 mph /  7.4 km/h   100 % 0.02 in /  0.51 mm 76.5 W/m2 OVC
13:49 42.6 °F /  5.9 °C 42.6 °F /  5.9 °C 29.64 in /  1003.6 hPa South 2.3 mph /  3.7 km/h 2.3 mph /  3.7 km/h 100 % 0.02 in /  0.51 mm 108.0 W/m2 BKN
13:54 42.8 °F /  6 °C 42.8 °F /  6 °C 29.65 in /  1003.9 hPa SE 4.6 mph /  7.4 km/h 4.6 mph /  7.4 km/h 100 % 0.01 in /  0.25 mm 109.5 W/m2 BKN
13:59 43.2 °F /  6.2 °C 43.2 °F /  6.2 °C 29.65 in /  1003.9 hPa South 3.5 mph /  5.6 km/h   100 % 0.01 in /  0.25 mm 139.5 W/m2 BKN
14:04 43.5 °F /  6.4 °C 43.5 °F /  6.4 °C 29.65 in /  1003.9 hPa SSE 6.9 mph /  11.1 km/h 6.9 mph /  11.1 km/h 100 % 0.01 in /  0.25 mm 159.0 W/m2 BKN
14:09 43.5 °F /  6.4 °C 43.5 °F /  6.4 °C 29.65 in /  1003.9 hPa South 8.1 mph /  13 km/h 8.1 mph /  13 km/h 100 % 0.01 in /  0.25 mm 193.5 W/m2 SCT
14:14 44.4 °F /  6.9 °C 44.4 °F /  6.9 °C 29.65 in /  1003.9 hPa SSW 4.8 mph /  7.7 km/h 4.8 mph /  7.7 km/h 100 % 0.01 in /  0.25 mm 252.0 W/m2 BKN
14:19 44.2 °F /  6.8 °C 44.2 °F /  6.8 °C 29.65 in /  1003.9 hPa ESE 3.5 mph /  5.6 km/h 3.5 mph /  5.6 km/h 100 % 0.00 in /  0 mm 121.5 W/m2 BKN
14:25 44.1 °F /  6.7 °C 44.1 °F /  6.7 °C 29.65 in /  1003.9 hPa SE 5.8 mph /  9.3 km/h 5.8 mph /  9.3 km/h 100 % 0.00 in /  0 mm 72.0 W/m2 OVC
14:30 43.5 °F /  6.4 °C 43.5 °F /  6.4 °C 29.65 in /  1003.9 hPa SE 3.5 mph /  5.6 km/h 3.5 mph /  5.6 km/h 100 % 0.00 in /  0 mm 57.7 W/m2 OVC
14:35 43.5 °F /  6.4 °C 43.5 °F /  6.4 °C 29.65 in /  1003.9 hPa SSE 1.2 mph /  1.9 km/h 1.2 mph /  1.9 km/h 100 % 0.00 in /  0 mm 51.0 W/m2 OVC
14:40 43.2 °F /  6.2 °C 43.2 °F /  6.2 °C 29.65 in /  1003.9 hPa SE 3.5 mph /  5.6 km/h 3.5 mph /  5.6 km/h 100 % 0.00 in /  0 mm 60.0 W/m2 OVC
14:45 43.2 °F /  6.2 °C 43.2 °F /  6.2 °C 29.65 in /  1003.9 hPa SE 3.5 mph /  5.6 km/h 3.5 mph /  5.6 km/h 100 % 0.00 in /  0 mm 75.4 W/m2 OVC
14:50 43.3 °F /  6.3 °C 43.3 °F /  6.3 °C 29.65 in /  1003.9 hPa ESE 5.0 mph /  8 km/h 5.0 mph /  8 km/h 100 % 0.00 in /  0 mm 70.5 W/m2 OVC
14:55 43.3 °F /  6.3 °C 43.3 °F /  6.3 °C 29.66 in /  1004.3 hPa SE 3.6 mph /  5.8 km/h 3.6 mph /  5.8 km/h 100 % 0.00 in /  0 mm 76.5 W/m2 OVC
15:00 43.5 °F /  6.4 °C 43.5 °F /  6.4 °C 29.66 in /  1004.3 hPa ESE 2.3 mph /  3.7 km/h 2.3 mph /  3.7 km/h 100 % 0.00 in /  0 mm 75.0 W/m2 OVC
15:05 43.2 °F /  6.2 °C 43.2 °F /  6.2 °C 29.66 in /  1004.3 hPa SSE 4.8 mph /  7.7 km/h 4.8 mph /  7.7 km/h 100 % 0.00 in /  0 mm 40.5 W/m2 OVC
15:10 43.3 °F /  6.3 °C 43.3 °F /  6.3 °C 29.66 in /  1004.3 hPa SSE 1.9 mph /  3.1 km/h 1.9 mph /  3.1 km/h 100 % 0.00 in /  0 mm 48.0 W/m2 OVC
15:15 43.2 °F /  6.2 °C 43.2 °F /  6.2 °C 29.66 in /  1004.3 hPa ESE 3.0 mph /  4.8 km/h 3.0 mph /  4.8 km/h 100 % 0.00 in /  0 mm 34.8 W/m2 OVC
15:20 43.2 °F /  6.2 °C 43.2 °F /  6.2 °C 29.66 in /  1004.3 hPa Calm     100 % 0.00 in /  0 mm 33.0 W/m2 OVC
15:25 43.2 °F /  6.2 °C 43.2 °F /  6.2 °C 29.66 in /  1004.3 hPa SE 1.2 mph /  1.9 km/h   100 % 0.00 in /  0 mm 30.0 W/m2 OVC
15:30 43.2 °F /  6.2 °C 43.2 °F /  6.2 °C 29.66 in /  1004.3 hPa Calm     100 % 0.00 in /  0 mm 28.4 W/m2 OVC
15:35 43.0 °F /  6.1 °C 43.0 °F /  6.1 °C 29.66 in /  1004.3 hPa SE 2.3 mph /  3.7 km/h 2.3 mph /  3.7 km/h 100 % 0.01 in /  0.25 mm 58.5 W/m2 RA
15:40 43.2 °F /  6.2 °C 43.2 °F /  6.2 °C 29.67 in /  1004.6 hPa SSE 2.8 mph /  4.5 km/h 2.8 mph /  4.5 km/h 100 % 0.01 in /  0.25 mm 45.0 W/m2 RA
15:45 43.2 °F /  6.2 °C 43.2 °F /  6.2 °C 29.67 in /  1004.6 hPa Calm     100 % 0.02 in /  0.51 mm 32.0 W/m2 RA
15:50 43.2 °F /  6.2 °C 43.2 °F /  6.2 °C 29.68 in /  1005 hPa SSE 3.5 mph /  5.6 km/h 3.5 mph /  5.6 km/h 100 % 0.02 in /  0.51 mm 43.5 W/m2 RA
15:55 43.2 °F /  6.2 °C 43.2 °F /  6.2 °C 29.68 in /  1005 hPa South 1.2 mph /  1.9 km/h   100 % 0.02 in /  0.51 mm 36.0 W/m2 RA
16:01 43.0 °F /  6.1 °C 43.0 °F /  6.1 °C 29.68 in /  1005 hPa Calm     100 % 0.02 in /  0.51 mm 23.7 W/m2 RA
16:06 43.2 °F /  6.2 °C 43.2 °F /  6.2 °C 29.68 in /  1005 hPa Calm     100 % 0.02 in /  0.51 mm 52.5 W/m2 OVC
16:11 43.2 °F /  6.2 °C 43.2 °F /  6.2 °C 29.68 in /  1005 hPa SE 1.2 mph /  1.9 km/h   100 % 0.02 in /  0.51 mm 61.5 W/m2 OVC
16:16 43.2 °F /  6.2 °C 43.2 °F /  6.2 °C 29.68 in /  1005 hPa South 2.3 mph /  3.7 km/h 2.3 mph /  3.7 km/h 100 % 0.02 in /  0.51 mm 21.6 W/m2 OVC
16:21 43.2 °F /  6.2 °C 43.2 °F /  6.2 °C 29.68 in /  1005 hPa Calm     100 % 0.02 in /  0.51 mm 48.0 W/m2 OVC
16:26 43.2 °F /  6.2 °C 43.2 °F /  6.2 °C 29.68 in /  1005 hPa Calm     100 % 0.02 in /  0.51 mm 37.5 W/m2 OVC
16:31 43.2 °F /  6.2 °C 43.2 °F /  6.2 °C 29.68 in /  1005 hPa SSE 2.3 mph /  3.7 km/h 2.3 mph /  3.7 km/h 100 % 0.02 in /  0.51 mm 12.9 W/m2 OVC
16:36 43.0 °F /  6.1 °C 43.0 °F /  6.1 °C 29.68 in /  1005 hPa WSW 3.5 mph /  5.6 km/h 3.5 mph /  5.6 km/h 100 % 0.02 in /  0.51 mm 12.0 W/m2 OVC
16:41 43.0 °F /  6.1 °C 43.0 °F /  6.1 °C 29.69 in /  1005.3 hPa Calm     100 % 0.02 in /  0.51 mm 25.5 W/m2 RA
16:46 43.0 °F /  6.1 °C 43.0 °F /  6.1 °C 29.69 in /  1005.3 hPa Calm     100 % 0.02 in /  0.51 mm 21.8 W/m2 RA
16:51 43.2 °F /  6.2 °C 43.2 °F /  6.2 °C 29.69 in /  1005.3 hPa Calm     100 % 0.02 in /  0.51 mm 48.0 W/m2 OVC
16:56 43.5 °F /  6.4 °C 43.5 °F /  6.4 °C 29.69 in /  1005.3 hPa SE 1.2 mph /  1.9 km/h   100 % 0.01 in /  0.25 mm 48.0 W/m2 OVC
17:01 43.7 °F /  6.5 °C 43.7 °F /  6.5 °C 29.70 in /  1005.6 hPa Calm     100 % 0.01 in /  0.25 mm 8.7 W/m2
17:06 43.5 °F /  6.4 °C 43.5 °F /  6.4 °C 29.70 in /  1005.6 hPa Calm     100 % 0.01 in /  0.25 mm 24.0 W/m2
17:11 43.2 °F /  6.2 °C 43.2 °F /  6.2 °C 29.71 in /  1006 hPa South 2.3 mph /  3.7 km/h   100 % 0.01 in /  0.25 mm 25.5 W/m2
17:16 43.0 °F /  6.1 °C 43.0 °F /  6.1 °C 29.72 in /  1006.3 hPa SSW 1.2 mph /  1.9 km/h 1.2 mph /  1.9 km/h 100 % 0.01 in /  0.25 mm 5.7 W/m2
17:21 42.6 °F /  5.9 °C 42.6 °F /  5.9 °C 29.72 in /  1006.3 hPa SSW 1.2 mph /  1.9 km/h 1.2 mph /  1.9 km/h 100 % 0.01 in /  0.25 mm 45.0 W/m2
17:26 42.6 °F /  5.9 °C 42.6 °F /  5.9 °C 29.72 in /  1006.3 hPa SSE 2.8 mph /  4.5 km/h 2.8 mph /  4.5 km/h 100 % 0.01 in /  0.25 mm 30.0 W/m2
17:31 42.4 °F /  5.8 °C 42.4 °F /  5.8 °C 29.72 in /  1006.3 hPa South 2.3 mph /  3.7 km/h 2.3 mph /  3.7 km/h 100 % 0.01 in /  0.25 mm 2.4 W/m2
17:37 42.3 °F /  5.7 °C 42.3 °F /  5.7 °C 29.72 in /  1006.3 hPa SE 2.3 mph /  3.7 km/h 2.3 mph /  3.7 km/h 100 % 0.01 in /  0.25 mm 22.5 W/m2
17:42 41.9 °F /  5.5 °C 41.9 °F /  5.5 °C 29.73 in /  1006.7 hPa South 1.7 mph /  2.7 km/h 1.7 mph /  2.7 km/h 100 % 0.00 in /  0 mm 16.5 W/m2 CLR
17:47 42.1 °F /  5.6 °C 42.1 °F /  5.6 °C 29.73 in /  1006.7 hPa South 4.0 mph /  6.4 km/h 4.0 mph /  6.4 km/h 100 % 0.00 in /  0 mm 1.0 W/m2 CLR
17:52 42.1 °F /  5.6 °C 42.1 °F /  5.6 °C 29.73 in /  1006.7 hPa Calm     100 % 0.00 in /  0 mm 15.0 W/m2 CLR
17:57 42.1 °F /  5.6 °C 42.1 °F /  5.6 °C 29.74 in /  1007 hPa Calm     100 % 0.01 in /  0.25 mm 12.0 W/m2 RA
18:02 42.1 °F /  5.6 °C 42.1 °F /  5.6 °C 29.74 in /  1007 hPa Calm     100 % 0.01 in /  0.25 mm 0.2 W/m2 RA
18:07 42.1 °F /  5.6 °C 42.1 °F /  5.6 °C 29.74 in /  1007 hPa Calm     100 % 0.01 in /  0.25 mm 12.0 W/m2
18:12 42.1 °F /  5.6 °C 42.1 °F /  5.6 °C 29.74 in /  1007 hPa SSE 1.4 mph /  2.3 km/h 1.4 mph /  2.3 km/h 100 % 0.01 in /  0.25 mm 12.0 W/m2
18:17 41.9 °F /  5.5 °C 41.9 °F /  5.5 °C 29.75 in /  1007.3 hPa SE 1.2 mph /  1.9 km/h   100 % 0.01 in /  0.25 mm 19.5 W/m2
18:22 41.9 °F /  5.5 °C 41.9 °F /  5.5 °C 29.75 in /  1007.3 hPa South 2.3 mph /  3.7 km/h 2.3 mph /  3.7 km/h 100 % 0.01 in /  0.25 mm 12.0 W/m2
18:27 41.9 °F /  5.5 °C 41.9 °F /  5.5 °C 29.76 in /  1007.7 hPa SSE 2.3 mph /  3.7 km/h 2.3 mph /  3.7 km/h 100 % 0.01 in /  0.25 mm 24.0 W/m2
18:33 41.7 °F /  5.4 °C 41.7 °F /  5.4 °C 29.76 in /  1007.7 hPa SSW 1.2 mph /  1.9 km/h 1.2 mph /  1.9 km/h 100 % 0.01 in /  0.25 mm 0.0 W/m2 OVC
18:38 41.7 °F /  5.4 °C 41.7 °F /  5.4 °C 29.76 in /  1007.7 hPa SE 2.5 mph /  4 km/h 2.5 mph /  4 km/h 100 % 0.01 in /  0.25 mm 9.0 W/m2 OVC
18:43 41.4 °F /  5.2 °C 41.4 °F /  5.2 °C 29.77 in /  1008 hPa South 2.3 mph /  3.7 km/h 2.3 mph /  3.7 km/h 100 % 0.01 in /  0.25 mm 10.5 W/m2 OVC
18:48 41.0 °F /  5 °C 41.0 °F /  5 °C 29.77 in /  1008 hPa SSE 1.7 mph /  2.7 km/h 1.7 mph /  2.7 km/h 100 % 0.01 in /  0.25 mm 0.0 W/m2 OVC
18:53 41.0 °F /  5 °C 41.0 °F /  5 °C 29.77 in /  1008 hPa SSE 4.8 mph /  7.7 km/h 4.8 mph /  7.7 km/h 100 % 0.01 in /  0.25 mm 19.5 W/m2 OVC
18:58 41.0 °F /  5 °C 41.0 °F /  5 °C 29.77 in /  1008 hPa SSE 1.2 mph /  1.9 km/h   100 % 0.00 in /  0 mm 10.5 W/m2
19:03 41.0 °F /  5 °C 41.0 °F /  5 °C 29.77 in /  1008 hPa SSE 1.2 mph /  1.9 km/h 1.2 mph /  1.9 km/h 100 % 0.00 in /  0 mm 24.0 W/m2
19:08 40.8 °F /  4.9 °C 40.8 °F /  4.9 °C 29.77 in /  1008 hPa Calm     100 % 0.00 in /  0 mm 10.5 W/m2
19:13 40.8 °F /  4.9 °C 40.8 °F /  4.9 °C 29.78 in /  1008.4 hPa SSE 2.1 mph /  3.4 km/h 2.1 mph /  3.4 km/h 100 % 0.00 in /  0 mm 16.5 W/m2
19:18 40.6 °F /  4.8 °C 40.6 °F /  4.8 °C 29.79 in /  1008.7 hPa SSE 1.2 mph /  1.9 km/h 1.2 mph /  1.9 km/h 100 % 0.00 in /  0 mm 0.0 W/m2
19:24 40.5 °F /  4.7 °C 40.5 °F /  4.7 °C 29.79 in /  1008.7 hPa Calm     100 % 0.00 in /  0 mm 10.5 W/m2
19:28 40.6 °F /  4.8 °C 40.6 °F /  4.8 °C 29.79 in /  1008.7 hPa Calm     100 % 0.00 in /  0 mm 10.5 W/m2
19:29 40.5 °F /  4.7 °C 40.5 °F /  4.7 °C 29.80 in /  1009 hPa Calm     100 % 0.00 in /  0 mm 9.0 W/m2
19:32 40.5 °F /  4.7 °C 40.5 °F /  4.7 °C 29.80 in /  1009 hPa Calm     100 % 0.00 in /  0 mm 0.0 W/m2
19:33 40.5 °F /  4.7 °C 40.5 °F /  4.7 °C 29.80 in /  1009 hPa SSE 2.3 mph /  3.7 km/h 2.3 mph /  3.7 km/h 100 % 0.00 in /  0 mm 0.0 W/m2
19:34 40.3 °F /  4.6 °C 40.3 °F /  4.6 °C 29.80 in /  1009 hPa South 2.3 mph /  3.7 km/h 2.3 mph /  3.7 km/h 100 % 0.00 in /  0 mm 0.0 W/m2
19:35 40.1 °F /  4.5 °C 40.1 °F /  4.5 °C 29.80 in /  1009 hPa Calm     100 % 0.00 in /  0 mm 0.0 W/m2
19:39 40.3 °F /  4.6 °C 40.3 °F /  4.6 °C 29.80 in /  1009 hPa Calm     100 % 0.00 in /  0 mm 22.5 W/m2
19:48 39.7 °F /  4.3 °C 39.7 °F /  4.3 °C 29.81 in /  1009.4 hPa Calm     100 % 0.00 in /  0 mm 0.0 W/m2
19:53 39.6 °F /  4.2 °C 39.6 °F /  4.2 °C 29.81 in /  1009.4 hPa Calm     100 % 0.00 in /  0 mm 9.0 W/m2
20:01 39.4 °F /  4.1 °C 39.4 °F /  4.1 °C 29.81 in /  1009.4 hPa Calm     100 % 0.00 in /  0 mm 0.0 W/m2
20:02 39.6 °F /  4.2 °C 39.6 °F /  4.2 °C 29.81 in /  1009.4 hPa Calm     100 % 0.00 in /  0 mm 0.0 W/m2
20:07 39.0 °F /  3.9 °C 39.0 °F /  3.9 °C 29.82 in /  1009.7 hPa Calm     100 % 0.00 in /  0 mm 10.5 W/m2
20:09 39.0 °F /  3.9 °C 39.0 °F /  3.9 °C 29.82 in /  1009.7 hPa Calm     100 % 0.00 in /  0 mm 10.5 W/m2
20:15 38.8 °F /  3.8 °C 38.8 °F /  3.8 °C 29.82 in /  1009.7 hPa SSE 1.2 mph /  1.9 km/h   100 % 0.00 in /  0 mm 10.5 W/m2
20:20 38.5 °F /  3.6 °C 38.5 °F /  3.6 °C 29.82 in /  1009.7 hPa South 0.8 mph /  1.3 km/h 0.8 mph /  1.3 km/h 100 % 0.00 in /  0 mm 0.0 W/m2
20:25 38.3 °F /  3.5 °C 38.3 °F /  3.5 °C 29.82 in /  1009.7 hPa Calm     100 % 0.00 in /  0 mm 10.5 W/m2
20:30 38.3 °F /  3.5 °C 38.3 °F /  3.5 °C 29.82 in /  1009.7 hPa Calm     100 % 0.00 in /  0 mm 10.5 W/m2
20:35 38.1 °F /  3.4 °C 38.1 °F /  3.4 °C 29.83 in /  1010 hPa Calm     100 % 0.00 in /  0 mm 0.0 W/m2
20:42 38.7 °F /  3.7 °C 38.7 °F /  3.7 °C 29.83 in /  1010 hPa Calm     100 % 0.00 in /  0 mm 22.5 W/m2
20:48 39.0 °F /  3.9 °C 39.0 °F /  3.9 °C 29.83 in /  1010 hPa Calm     100 % 0.01 in /  0.25 mm 0.0 W/m2 RA
20:53 39.2 °F /  4 °C 39.2 °F /  4 °C 29.84 in /  1010.4 hPa SSE 1.0 mph /  1.6 km/h 1.0 mph /  1.6 km/h 100 % 0.01 in /  0.25 mm 0.0 W/m2 RA
20:58 39.2 °F /  4 °C 39.2 °F /  4 °C 29.84 in /  1010.4 hPa SSE 1.5 mph /  2.4 km/h 1.5 mph /  2.4 km/h 100 % 0.01 in /  0.25 mm 9.0 W/m2
21:03 39.2 °F /  4 °C 39.2 °F /  4 °C 29.84 in /  1010.4 hPa SSE 2.3 mph /  3.7 km/h 2.3 mph /  3.7 km/h 100 % 0.01 in /  0.25 mm 0.0 W/m2 CLR
21:08 39.2 °F /  4 °C 39.2 °F /  4 °C 29.85 in /  1010.7 hPa NNW 1.2 mph /  1.9 km/h   100 % 0.01 in /  0.25 mm 0.0 W/m2 CLR
21:09 39.2 °F /  4 °C 39.2 °F /  4 °C 29.85 in /  1010.7 hPa SE 2.1 mph /  3.4 km/h 2.1 mph /  3.4 km/h 100 % 0.01 in /  0.25 mm 15.0 W/m2 CLR
21:11 39.0 °F /  3.9 °C 39.0 °F /  3.9 °C 29.85 in /  1010.7 hPa SSE 1.4 mph /  2.3 km/h 1.4 mph /  2.3 km/h 100 % 0.01 in /  0.25 mm 10.5 W/m2 CLR
21:16 38.5 °F /  3.6 °C 38.5 °F /  3.6 °C 29.85 in /  1010.7 hPa Calm     100 % 0.01 in /  0.25 mm 0.0 W/m2 CLR
21:21 38.7 °F /  3.7 °C 38.7 °F /  3.7 °C 29.85 in /  1010.7 hPa Calm     100 % 0.01 in /  0.25 mm 0.0 W/m2
21:26 39.0 °F /  3.9 °C 39.0 °F /  3.9 °C 29.85 in /  1010.7 hPa Calm     100 % 0.01 in /  0.25 mm 12.0 W/m2
21:31 39.0 °F /  3.9 °C 39.0 °F /  3.9 °C 29.86 in /  1011.1 hPa South 1.4 mph /  2.3 km/h 1.4 mph /  2.3 km/h 100 % 0.01 in /  0.25 mm 0.0 W/m2 CLR
21:36 39.2 °F /  4 °C 39.2 °F /  4 °C 29.86 in /  1011.1 hPa Calm     100 % 0.01 in /  0.25 mm 0.0 W/m2
21:41 39.0 °F /  3.9 °C 39.0 °F /  3.9 °C 29.86 in /  1011.1 hPa SSE 1.2 mph /  1.9 km/h   100 % 0.01 in /  0.25 mm 10.5 W/m2
21:46 39.0 °F /  3.9 °C 39.0 °F /  3.9 °C 29.86 in /  1011.1 hPa Calm     100 % 0.00 in /  0 mm 0.0 W/m2
21:51 39.0 °F /  3.9 °C 39.0 °F /  3.9 °C 29.86 in /  1011.1 hPa Calm     100 % 0.00 in /  0 mm 0.0 W/m2
21:56 38.5 °F /  3.6 °C 38.5 °F /  3.6 °C 29.88 in /  1011.7 hPa Calm     100 % 0.00 in /  0 mm 9.0 W/m2
22:06 37.8 °F /  3.2 °C 37.8 °F /  3.2 °C 29.87 in /  1011.4 hPa Calm     100 % 0.00 in /  0 mm 0.0 W/m2
22:11 36.9 °F /  2.7 °C 36.9 °F /  2.7 °C 29.88 in /  1011.7 hPa Calm     100 % 0.00 in /  0 mm 10.5 W/m2
22:16 36.3 °F /  2.4 °C 36.3 °F /  2.4 °C 29.88 in /  1011.7 hPa SSE 2.5 mph /  4 km/h 2.5 mph /  4 km/h 100 % 0.00 in /  0 mm 0.0 W/m2
22:21 36.5 °F /  2.5 °C 36.5 °F /  2.5 °C 29.88 in /  1011.7 hPa South 2.3 mph /  3.7 km/h 2.3 mph /  3.7 km/h 100 % 0.00 in /  0 mm 0.0 W/m2
22:26 36.5 °F /  2.5 °C 36.5 °F /  2.5 °C 29.88 in /  1011.7 hPa Calm     100 % 0.00 in /  0 mm 9.0 W/m2
22:32 36.0 °F /  2.2 °C 36.0 °F /  2.2 °C 29.88 in /  1011.7 hPa Calm     100 % 0.00 in /  0 mm 0.0 W/m2
22:37 35.8 °F /  2.1 °C 35.8 °F /  2.1 °C 29.88 in /  1011.7 hPa Calm     100 % 0.00 in /  0 mm 0.0 W/m2
22:42 35.6 °F /  2 °C 35.6 °F /  2 °C 29.88 in /  1011.7 hPa Calm     100 % 0.00 in /  0 mm 0.0 W/m2
22:47 35.4 °F /  1.9 °C 35.4 °F /  1.9 °C 29.89 in /  1012.1 hPa Calm     100 % 0.00 in /  0 mm 0.0 W/m2
22:52 35.1 °F /  1.7 °C 35.1 °F /  1.7 °C 29.89 in /  1012.1 hPa Calm     100 % 0.00 in /  0 mm 0.0 W/m2
22:57 35.1 °F /  1.7 °C 35.1 °F /  1.7 °C 29.89 in /  1012.1 hPa Calm     100 % 0.00 in /  0 mm 0.0 W/m2
23:02 35.1 °F /  1.7 °C 35.1 °F /  1.7 °C 29.89 in /  1012.1 hPa Calm     100 % 0.00 in /  0 mm 0.0 W/m2
23:07 34.9 °F /  1.6 °C 34.9 °F /  1.6 °C 29.89 in /  1012.1 hPa Calm     100 % 0.00 in /  0 mm 0.0 W/m2
23:12 34.7 °F /  1.5 °C 34.7 °F /  1.5 °C 29.89 in /  1012.1 hPa Calm     100 % 0.00 in /  0 mm 0.0 W/m2
23:17 34.5 °F /  1.4 °C 34.5 °F /  1.4 °C 29.89 in /  1012.1 hPa Calm     100 % 0.00 in /  0 mm 0.0 W/m2
23:22 34.2 °F /  1.2 °C 34.2 °F /  1.2 °C 29.89 in /  1012.1 hPa Calm     100 % 0.00 in /  0 mm 0.0 W/m2
23:27 34.3 °F /  1.3 °C 34.3 °F /  1.3 °C 29.89 in /  1012.1 hPa Calm     100 % 0.00 in /  0 mm 0.0 W/m2
23:32 34.2 °F /  1.2 °C 34.2 °F /  1.2 °C 29.90 in /  1012.4 hPa Calm     100 % 0.00 in /  0 mm 12.0 W/m2
23:37 34.0 °F /  1.1 °C 34.0 °F /  1.1 °C 29.90 in /  1012.4 hPa Calm     100 % 0.00 in /  0 mm 0.0 W/m2
23:42 34.2 °F /  1.2 °C 34.2 °F /  1.2 °C 29.90 in /  1012.4 hPa Calm     100 % 0.00 in /  0 mm 0.0 W/m2
23:47 33.8 °F /  1 °C 33.8 °F /  1 °C 29.90 in /  1012.4 hPa Calm     100 % 0.00 in /  0 mm 24.0 W/m2
23:52 33.8 °F /  1 °C 33.8 °F /  1 °C 29.90 in /  1012.4 hPa Calm     100 % 0.00 in /  0 mm 0.0 W/m2
23:57 33.6 °F /  0.9 °C 33.6 °F /  0.9 °C 29.90 in /  1012.4 hPa Calm     100 % 0.00 in /  0 mm 0.0 W/m2
Wether-Above
Compliments of Weather Underground - 2.25 mb
Welcome to Weather-Above
Cheddleton weather station supplies various organisations with data from our weather station one of them is the weather Underground this information displayed here is coming from the weather Underground server 

If any information is used please acknowledge the source to www weather-above.com or weather Underground